sensor_id;sensor_type;location;lat;lon;timestamp;P1;durP1;ratioP1;P2;durP2;ratioP2
73524;SDS011;61776;56.194;44.160;2022-09-09T00:20:58;5.25;;;2.08;;
73524;SDS011;61776;56.194;44.160;2022-09-09T00:23:38;4.80;;;2.20;;
73524;SDS011;61776;56.194;44.160;2022-09-09T00:28:31;5.87;;;2.33;;
73524;SDS011;61776;56.194;44.160;2022-09-09T00:31:22;10.32;;;2.83;;
73524;SDS011;61776;56.194;44.160;2022-09-09T00:33:52;5.35;;;2.40;;
73524;SDS011;61776;56.194;44.160;2022-09-09T00:36:20;6.43;;;2.20;;
73524;SDS011;61776;56.194;44.160;2022-09-09T00:38:57;5.13;;;2.43;;
73524;SDS011;61776;56.194;44.160;2022-09-09T00:41:37;5.25;;;2.60;;
73524;SDS011;61776;56.194;44.160;2022-09-09T00:44:36;5.90;;;2.33;;
73524;SDS011;61776;56.194;44.160;2022-09-09T00:52:36;6.10;;;2.40;;
73524;SDS011;61776;56.194;44.160;2022-09-09T00:58:34;5.65;;;2.20;;
73524;SDS011;61776;56.194;44.160;2022-09-09T01:01:18;4.78;;;2.30;;
73524;SDS011;61776;56.194;44.160;2022-09-09T01:03:54;4.88;;;2.10;;
73524;SDS011;61776;56.194;44.160;2022-09-09T01:06:30;6.23;;;2.43;;
73524;SDS011;61776;56.194;44.160;2022-09-09T01:12:24;8.70;;;2.30;;
73524;SDS011;61776;56.194;44.160;2022-09-09T01:15:26;6.10;;;2.03;;
73524;SDS011;61776;56.194;44.160;2022-09-09T01:18:02;6.43;;;2.28;;
73524;SDS011;61776;56.194;44.160;2022-09-09T01:28:58;4.60;;;2.20;;
73524;SDS011;61776;56.194;44.160;2022-09-09T01:31:32;5.45;;;2.13;;
73524;SDS011;61776;56.194;44.160;2022-09-09T01:34:08;6.83;;;2.10;;
73524;SDS011;61776;56.194;44.160;2022-09-09T01:36:44;5.13;;;2.35;;
73524;SDS011;61776;56.194;44.160;2022-09-09T01:39:19;4.63;;;2.08;;
73524;SDS011;61776;56.194;44.160;2022-09-09T01:41:53;4.93;;;2.10;;
73524;SDS011;61776;56.194;44.160;2022-09-09T01:44:21;4.60;;;2.08;;
73524;SDS011;61776;56.194;44.160;2022-09-09T01:46:48;5.33;;;2.20;;
73524;SDS011;61776;56.194;44.160;2022-09-09T01:49:17;5.70;;;2.30;;
73524;SDS011;61776;56.194;44.160;2022-09-09T01:51:43;4.90;;;2.33;;
73524;SDS011;61776;56.194;44.160;2022-09-09T01:54:13;9.50;;;2.00;;
73524;SDS011;61776;56.194;44.160;2022-09-09T01:59:24;5.93;;;2.47;;
73524;SDS011;61776;56.194;44.160;2022-09-09T02:02:11;4.28;;;2.00;;
73524;SDS011;61776;56.194;44.160;2022-09-09T02:07:42;3.90;;;1.83;;
73524;SDS011;61776;56.194;44.160;2022-09-09T02:10:44;4.82;;;2.15;;
73524;SDS011;61776;56.194;44.160;2022-09-09T02:13:52;4.47;;;2.17;;
73524;SDS011;61776;56.194;44.160;2022-09-09T02:16:28;4.45;;;2.17;;
73524;SDS011;61776;56.194;44.160;2022-09-09T02:19:03;4.30;;;2.00;;
73524;SDS011;61776;56.194;44.160;2022-09-09T02:22:02;4.95;;;2.00;;
73524;SDS011;61776;56.194;44.160;2022-09-09T02:24:31;4.72;;;2.22;;
73524;SDS011;61776;56.194;44.160;2022-09-09T02:27:18;4.40;;;1.80;;
73524;SDS011;61776;56.194;44.160;2022-09-09T02:29:47;6.22;;;2.10;;
73524;SDS011;61776;56.194;44.160;2022-09-09T02:32:20;5.15;;;2.10;;
73524;SDS011;61776;56.194;44.160;2022-09-09T02:34:50;5.88;;;2.10;;
73524;SDS011;61776;56.194;44.160;2022-09-09T02:37:21;4.50;;;2.05;;
73524;SDS011;61776;56.194;44.160;2022-09-09T02:39:54;4.67;;;1.87;;
73524;SDS011;61776;56.194;44.160;2022-09-09T02:42:23;8.43;;;2.30;;
73524;SDS011;61776;56.194;44.160;2022-09-09T02:44:51;4.55;;;1.85;;
73524;SDS011;61776;56.194;44.160;2022-09-09T02:47:29;5.72;;;3.08;;
73524;SDS011;61776;56.194;44.160;2022-09-09T02:50:03;4.73;;;2.27;;
73524;SDS011;61776;56.194;44.160;2022-09-09T02:55:35;7.45;;;2.22;;
73524;SDS011;61776;56.194;44.160;2022-09-09T02:58:07;4.57;;;2.03;;
73524;SDS011;61776;56.194;44.160;2022-09-09T03:00:37;5.68;;;2.20;;
73524;SDS011;61776;56.194;44.160;2022-09-09T03:03:08;11.67;;;2.33;;
73524;SDS011;61776;56.194;44.160;2022-09-09T03:05:36;5.75;;;2.00;;
73524;SDS011;61776;56.194;44.160;2022-09-09T03:08:04;5.70;;;1.98;;
73524;SDS011;61776;56.194;44.160;2022-09-09T03:10:35;5.78;;;1.67;;
73524;SDS011;61776;56.194;44.160;2022-09-09T03:13:02;5.55;;;1.90;;
73524;SDS011;61776;56.194;44.160;2022-09-09T03:15:34;4.40;;;1.90;;
73524;SDS011;61776;56.194;44.160;2022-09-09T03:18:00;5.72;;;1.73;;
73524;SDS011;61776;56.194;44.160;2022-09-09T03:20:28;4.00;;;1.60;;
73524;SDS011;61776;56.194;44.160;2022-09-09T03:22:55;4.82;;;1.80;;
73524;SDS011;61776;56.194;44.160;2022-09-09T03:25:21;4.13;;;1.55;;
73524;SDS011;61776;56.194;44.160;2022-09-09T03:27:50;5.20;;;1.77;;
73524;SDS011;61776;56.194;44.160;2022-09-09T03:30:23;7.00;;;1.90;;
73524;SDS011;61776;56.194;44.160;2022-09-09T03:32:53;5.00;;;2.00;;
73524;SDS011;61776;56.194;44.160;2022-09-09T03:35:22;4.82;;;2.03;;
73524;SDS011;61776;56.194;44.160;2022-09-09T03:37:48;3.53;;;1.53;;
73524;SDS011;61776;56.194;44.160;2022-09-09T03:40:14;4.13;;;1.70;;
73524;SDS011;61776;56.194;44.160;2022-09-09T03:42:43;3.50;;;1.50;;
73524;SDS011;61776;56.194;44.160;2022-09-09T03:45:09;4.57;;;1.48;;
73524;SDS011;61776;56.194;44.160;2022-09-09T03:47:38;4.25;;;1.40;;
73524;SDS011;61776;56.194;44.160;2022-09-09T03:50:06;5.30;;;1.30;;
73524;SDS011;61776;56.194;44.160;2022-09-09T03:52:36;3.83;;;1.40;;
73524;SDS011;61776;56.194;44.160;2022-09-09T03:55:06;3.45;;;1.35;;
73524;SDS011;61776;56.194;44.160;2022-09-09T03:57:33;5.57;;;1.35;;
73524;SDS011;61776;56.194;44.160;2022-09-09T04:00:05;4.07;;;1.23;;
73524;SDS011;61776;56.194;44.160;2022-09-09T04:02:41;2.90;;;1.00;;
73524;SDS011;61776;56.194;44.160;2022-09-09T04:05:11;5.47;;;1.20;;
73524;SDS011;61776;56.194;44.160;2022-09-09T04:07:40;3.97;;;1.30;;
73524;SDS011;61776;56.194;44.160;2022-09-09T04:10:06;4.72;;;1.30;;
73524;SDS011;61776;56.194;44.160;2022-09-09T04:12:36;4.85;;;1.15;;
73524;SDS011;61776;56.194;44.160;2022-09-09T04:15:02;2.80;;;1.07;;
73524;SDS011;61776;56.194;44.160;2022-09-09T04:17:30;5.75;;;1.25;;
73524;SDS011;61776;56.194;44.160;2022-09-09T04:19:56;3.83;;;1.40;;
73524;SDS011;61776;56.194;44.160;2022-09-09T04:22:23;5.35;;;1.20;;
73524;SDS011;61776;56.194;44.160;2022-09-09T04:24:49;3.70;;;1.43;;
73524;SDS011;61776;56.194;44.160;2022-09-09T04:27:17;3.05;;;1.10;;
73524;SDS011;61776;56.194;44.160;2022-09-09T04:29:43;3.78;;;1.38;;
73524;SDS011;61776;56.194;44.160;2022-09-09T04:32:12;4.50;;;1.30;;
73524;SDS011;61776;56.194;44.160;2022-09-09T04:34:39;3.65;;;1.33;;
73524;SDS011;61776;56.194;44.160;2022-09-09T04:37:08;4.20;;;1.30;;
73524;SDS011;61776;56.194;44.160;2022-09-09T04:39:36;5.93;;;1.23;;
73524;SDS011;61776;56.194;44.160;2022-09-09T04:42:02;3.90;;;1.42;;
73524;SDS011;61776;56.194;44.160;2022-09-09T04:44:28;5.38;;;1.52;;
73524;SDS011;61776;56.194;44.160;2022-09-09T04:46:55;4.35;;;1.33;;
73524;SDS011;61776;56.194;44.160;2022-09-09T04:49:22;5.67;;;1.30;;
73524;SDS011;61776;56.194;44.160;2022-09-09T04:51:49;3.28;;;0.98;;
73524;SDS011;61776;56.194;44.160;2022-09-09T04:54:16;3.72;;;0.90;;
73524;SDS011;61776;56.194;44.160;2022-09-09T04:56:43;3.55;;;1.00;;
73524;SDS011;61776;56.194;44.160;2022-09-09T04:59:10;2.30;;;0.70;;
73524;SDS011;61776;56.194;44.160;2022-09-09T05:01:42;3.17;;;0.80;;
73524;SDS011;61776;56.194;44.160;2022-09-09T05:04:09;4.00;;;0.80;;
73524;SDS011;61776;56.194;44.160;2022-09-09T05:06:39;2.40;;;0.60;;
73524;SDS011;61776;56.194;44.160;2022-09-09T05:09:05;2.30;;;0.65;;
73524;SDS011;61776;56.194;44.160;2022-09-09T05:11:31;2.80;;;0.65;;
73524;SDS011;61776;56.194;44.160;2022-09-09T05:14:20;3.00;;;0.63;;
73524;SDS011;61776;56.194;44.160;2022-09-09T05:16:46;2.45;;;0.50;;
73524;SDS011;61776;56.194;44.160;2022-09-09T05:19:13;4.95;;;0.60;;
73524;SDS011;61776;56.194;44.160;2022-09-09T05:21:48;2.70;;;0.60;;
73524;SDS011;61776;56.194;44.160;2022-09-09T05:24:19;3.58;;;0.70;;
73524;SDS011;61776;56.194;44.160;2022-09-09T05:26:47;2.90;;;0.50;;
73524;SDS011;61776;56.194;44.160;2022-09-09T05:29:14;1.63;;;0.38;;
73524;SDS011;61776;56.194;44.160;2022-09-09T05:31:40;1.98;;;0.35;;
73524;SDS011;61776;56.194;44.160;2022-09-09T05:34:10;2.58;;;0.30;;
73524;SDS011;61776;56.194;44.160;2022-09-09T05:36:38;1.90;;;0.43;;
73524;SDS011;61776;56.194;44.160;2022-09-09T05:39:04;3.10;;;0.40;;
73524;SDS011;61776;56.194;44.160;2022-09-09T05:41:32;1.92;;;0.30;;
73524;SDS011;61776;56.194;44.160;2022-09-09T05:44:00;2.33;;;0.38;;
73524;SDS011;61776;56.194;44.160;2022-09-09T05:46:27;3.55;;;0.50;;
73524;SDS011;61776;56.194;44.160;2022-09-09T05:48:54;2.22;;;0.40;;
73524;SDS011;61776;56.194;44.160;2022-09-09T05:51:28;2.43;;;0.30;;
73524;SDS011;61776;56.194;44.160;2022-09-09T05:54:01;2.15;;;0.30;;
73524;SDS011;61776;56.194;44.160;2022-09-09T05:56:31;2.45;;;0.40;;
73524;SDS011;61776;56.194;44.160;2022-09-09T05:58:58;1.80;;;0.40;;
73524;SDS011;61776;56.194;44.160;2022-09-09T06:01:27;1.58;;;0.30;;
73524;SDS011;61776;56.194;44.160;2022-09-09T06:03:56;7.57;;;0.73;;
73524;SDS011;61776;56.194;44.160;2022-09-09T06:06:24;3.70;;;0.30;;
73524;SDS011;61776;56.194;44.160;2022-09-09T06:08:54;1.52;;;0.30;;
73524;SDS011;61776;56.194;44.160;2022-09-09T06:11:24;2.33;;;0.50;;
73524;SDS011;61776;56.194;44.160;2022-09-09T06:13:52;4.20;;;0.32;;
73524;SDS011;61776;56.194;44.160;2022-09-09T06:16:21;1.30;;;0.20;;
73524;SDS011;61776;56.194;44.160;2022-09-09T06:18:49;1.77;;;0.30;;
73524;SDS011;61776;56.194;44.160;2022-09-09T06:23:47;3.00;;;0.43;;
73524;SDS011;61776;56.194;44.160;2022-09-09T06:26:20;1.70;;;0.30;;
73524;SDS011;61776;56.194;44.160;2022-09-09T06:28:50;1.63;;;0.20;;
73524;SDS011;61776;56.194;44.160;2022-09-09T06:31:22;1.67;;;0.20;;
73524;SDS011;61776;56.194;44.160;2022-09-09T06:33:50;1.95;;;0.40;;
73524;SDS011;61776;56.194;44.160;2022-09-09T06:36:19;2.30;;;0.30;;
73524;SDS011;61776;56.194;44.160;2022-09-09T06:38:46;4.90;;;0.30;;
73524;SDS011;61776;56.194;44.160;2022-09-09T06:41:14;1.50;;;0.30;;
73524;SDS011;61776;56.194;44.160;2022-09-09T06:43:44;1.33;;;0.20;;
73524;SDS011;61776;56.194;44.160;2022-09-09T06:46:15;1.88;;;0.35;;
73524;SDS011;61776;56.194;44.160;2022-09-09T06:48:45;1.20;;;0.20;;
73524;SDS011;61776;56.194;44.160;2022-09-09T06:53:47;1.53;;;0.30;;
73524;SDS011;61776;56.194;44.160;2022-09-09T06:58:42;1.58;;;0.20;;
73524;SDS011;61776;56.194;44.160;2022-09-09T07:01:14;4.45;;;0.20;;
73524;SDS011;61776;56.194;44.160;2022-09-09T07:03:51;1.48;;;0.40;;
73524;SDS011;61776;56.194;44.160;2022-09-09T07:06:20;2.70;;;0.40;;
73524;SDS011;61776;56.194;44.160;2022-09-09T07:08:51;4.00;;;0.30;;
73524;SDS011;61776;56.194;44.160;2022-09-09T07:11:19;2.42;;;0.28;;
73524;SDS011;61776;56.194;44.160;2022-09-09T07:13:46;1.30;;;0.30;;
73524;SDS011;61776;56.194;44.160;2022-09-09T07:16:14;1.17;;;0.20;;
73524;SDS011;61776;56.194;44.160;2022-09-09T07:18:42;6.00;;;0.27;;
73524;SDS011;61776;56.194;44.160;2022-09-09T07:21:12;1.77;;;0.30;;
73524;SDS011;61776;56.194;44.160;2022-09-09T07:23:40;1.90;;;0.20;;
73524;SDS011;61776;56.194;44.160;2022-09-09T07:26:07;2.10;;;0.20;;
73524;SDS011;61776;56.194;44.160;2022-09-09T07:28:38;5.80;;;0.32;;
73524;SDS011;61776;56.194;44.160;2022-09-09T07:31:06;1.07;;;0.20;;
73524;SDS011;61776;56.194;44.160;2022-09-09T07:33:34;1.35;;;0.20;;
73524;SDS011;61776;56.194;44.160;2022-09-09T07:36:05;1.05;;;0.10;;
73524;SDS011;61776;56.194;44.160;2022-09-09T07:38:41;1.00;;;0.20;;
73524;SDS011;61776;56.194;44.160;2022-09-09T07:41:14;1.70;;;0.20;;
73524;SDS011;61776;56.194;44.160;2022-09-09T07:43:43;1.73;;;0.20;;
73524;SDS011;61776;56.194;44.160;2022-09-09T07:46:17;1.52;;;0.20;;
73524;SDS011;61776;56.194;44.160;2022-09-09T07:48:46;1.30;;;0.20;;
73524;SDS011;61776;56.194;44.160;2022-09-09T07:51:23;2.75;;;0.20;;
73524;SDS011;61776;56.194;44.160;2022-09-09T07:53:53;0.95;;;0.10;;
73524;SDS011;61776;56.194;44.160;2022-09-09T07:56:21;1.10;;;0.20;;
73524;SDS011;61776;56.194;44.160;2022-09-09T07:58:50;1.30;;;0.10;;
73524;SDS011;61776;56.194;44.160;2022-09-09T08:01:26;1.10;;;0.20;;
73524;SDS011;61776;56.194;44.160;2022-09-09T08:04:03;1.70;;;0.25;;
73524;SDS011;61776;56.194;44.160;2022-09-09T08:06:36;6.00;;;0.30;;
73524;SDS011;61776;56.194;44.160;2022-09-09T08:09:04;1.40;;;0.30;;
73524;SDS011;61776;56.194;44.160;2022-09-09T08:11:31;1.00;;;0.20;;
73524;SDS011;61776;56.194;44.160;2022-09-09T08:13:59;0.90;;;0.17;;
73524;SDS011;61776;56.194;44.160;2022-09-09T08:16:27;0.90;;;0.10;;
73524;SDS011;61776;56.194;44.160;2022-09-09T08:18:56;1.10;;;0.20;;
73524;SDS011;61776;56.194;44.160;2022-09-09T08:21:23;1.00;;;0.10;;
73524;SDS011;61776;56.194;44.160;2022-09-09T08:23:52;1.00;;;0.20;;
73524;SDS011;61776;56.194;44.160;2022-09-09T08:26:21;1.00;;;0.20;;
73524;SDS011;61776;56.194;44.160;2022-09-09T08:28:49;1.02;;;0.20;;
73524;SDS011;61776;56.194;44.160;2022-09-09T08:31:22;1.50;;;0.22;;
73524;SDS011;61776;56.194;44.160;2022-09-09T08:33:50;1.20;;;0.20;;
73524;SDS011;61776;56.194;44.160;2022-09-09T08:36:17;2.10;;;0.40;;
73524;SDS011;61776;56.194;44.160;2022-09-09T08:38:49;1.10;;;0.20;;
73524;SDS011;61776;56.194;44.160;2022-09-09T08:44:01;1.25;;;0.20;;
73524;SDS011;61776;56.194;44.160;2022-09-09T08:46:43;2.63;;;0.40;;
73524;SDS011;61776;56.194;44.160;2022-09-09T08:52:08;2.15;;;0.40;;
73524;SDS011;61776;56.194;44.160;2022-09-09T08:54:41;1.58;;;0.30;;
73524;SDS011;61776;56.194;44.160;2022-09-09T08:57:11;7.82;;;0.60;;
73524;SDS011;61776;56.194;44.160;2022-09-09T08:59:43;1.77;;;0.20;;
73524;SDS011;61776;56.194;44.160;2022-09-09T09:07:16;3.97;;;0.20;;
73524;SDS011;61776;56.194;44.160;2022-09-09T09:12:41;1.00;;;0.20;;
73524;SDS011;61776;56.194;44.160;2022-09-09T09:15:23;1.98;;;0.43;;
73524;SDS011;61776;56.194;44.160;2022-09-09T09:17:52;1.38;;;0.20;;
73524;SDS011;61776;56.194;44.160;2022-09-09T09:20:25;3.42;;;0.30;;
73524;SDS011;61776;56.194;44.160;2022-09-09T09:23:18;1.55;;;0.20;;
73524;SDS011;61776;56.194;44.160;2022-09-09T09:25:48;1.30;;;0.23;;
73524;SDS011;61776;56.194;44.160;2022-09-09T09:28:16;1.17;;;0.20;;
73524;SDS011;61776;56.194;44.160;2022-09-09T09:36:16;2.60;;;0.50;;
73524;SDS011;61776;56.194;44.160;2022-09-09T09:41:30;1.75;;;0.20;;
73524;SDS011;61776;56.194;44.160;2022-09-09T09:43:59;1.80;;;0.40;;
73524;SDS011;61776;56.194;44.160;2022-09-09T09:46:27;1.90;;;0.60;;
73524;SDS011;61776;56.194;44.160;2022-09-09T09:49:00;1.83;;;0.50;;
73524;SDS011;61776;56.194;44.160;2022-09-09T09:51:32;1.60;;;0.30;;
73524;SDS011;61776;56.194;44.160;2022-09-09T09:54:05;1.60;;;0.32;;
73524;SDS011;61776;56.194;44.160;2022-09-09T09:56:39;1.45;;;0.30;;
73524;SDS011;61776;56.194;44.160;2022-09-09T10:01:46;2.25;;;0.50;;
73524;SDS011;61776;56.194;44.160;2022-09-09T10:06:53;1.30;;;0.30;;
73524;SDS011;61776;56.194;44.160;2022-09-09T10:15:00;3.13;;;0.30;;
73524;SDS011;61776;56.194;44.160;2022-09-09T10:21:11;1.70;;;0.40;;
73524;SDS011;61776;56.194;44.160;2022-09-09T10:26:02;1.40;;;0.30;;
73524;SDS011;61776;56.194;44.160;2022-09-09T10:28:50;2.78;;;0.30;;
73524;SDS011;61776;56.194;44.160;2022-09-09T10:36:52;1.05;;;0.13;;
73524;SDS011;61776;56.194;44.160;2022-09-09T10:39:35;2.33;;;0.20;;
73524;SDS011;61776;56.194;44.160;2022-09-09T10:42:04;2.07;;;0.47;;
73524;SDS011;61776;56.194;44.160;2022-09-09T10:56:06;2.60;;;0.40;;
73524;SDS011;61776;56.194;44.160;2022-09-09T10:58:49;1.70;;;0.20;;
73524;SDS011;61776;56.194;44.160;2022-09-09T11:02:03;1.65;;;0.30;;
73524;SDS011;61776;56.194;44.160;2022-09-09T11:04:24;1.52;;;0.20;;
73524;SDS011;61776;56.194;44.160;2022-09-09T11:06:57;3.08;;;0.30;;
73524;SDS011;61776;56.194;44.160;2022-09-09T11:09:31;1.73;;;0.30;;
73524;SDS011;61776;56.194;44.160;2022-09-09T11:12:02;2.15;;;0.30;;
73524;SDS011;61776;56.194;44.160;2022-09-09T11:14:30;1.23;;;0.20;;
73524;SDS011;61776;56.194;44.160;2022-09-09T11:17:00;1.85;;;0.20;;
73524;SDS011;61776;56.194;44.160;2022-09-09T11:19:39;1.50;;;0.30;;
73524;SDS011;61776;56.194;44.160;2022-09-09T11:22:15;1.80;;;0.40;;
73524;SDS011;61776;56.194;44.160;2022-09-09T11:25:10;2.55;;;0.30;;
73524;SDS011;61776;56.194;44.160;2022-09-09T11:33:23;2.47;;;0.30;;
73524;SDS011;61776;56.194;44.160;2022-09-09T11:41:50;2.38;;;0.70;;
73524;SDS011;61776;56.194;44.160;2022-09-09T11:44:29;2.67;;;0.52;;
73524;SDS011;61776;56.194;44.160;2022-09-09T11:46:56;3.10;;;0.50;;
73524;SDS011;61776;56.194;44.160;2022-09-09T11:49:27;2.05;;;0.30;;
73524;SDS011;61776;56.194;44.160;2022-09-09T11:51:53;2.95;;;0.50;;
73524;SDS011;61776;56.194;44.160;2022-09-09T11:54:30;1.90;;;0.30;;
73524;SDS011;61776;56.194;44.160;2022-09-09T11:56:58;2.70;;;0.70;;
73524;SDS011;61776;56.194;44.160;2022-09-09T11:59:25;2.42;;;0.65;;
73524;SDS011;61776;56.194;44.160;2022-09-09T12:01:58;2.47;;;0.20;;
73524;SDS011;61776;56.194;44.160;2022-09-09T12:04:49;2.15;;;0.38;;
73524;SDS011;61776;56.194;44.160;2022-09-09T12:17:37;1.77;;;0.28;;
73524;SDS011;61776;56.194;44.160;2022-09-09T12:33:43;1.83;;;0.40;;
73524;SDS011;61776;56.194;44.160;2022-09-09T12:36:19;3.42;;;0.30;;
73524;SDS011;61776;56.194;44.160;2022-09-09T12:38:54;1.65;;;0.30;;
73524;SDS011;61776;56.194;44.160;2022-09-09T12:41:26;1.98;;;0.20;;
73524;SDS011;61776;56.194;44.160;2022-09-09T12:44:06;3.03;;;0.20;;
73524;SDS011;61776;56.194;44.160;2022-09-09T12:46:36;2.17;;;0.20;;
73524;SDS011;61776;56.194;44.160;2022-09-09T12:51:51;1.63;;;0.30;;
73524;SDS011;61776;56.194;44.160;2022-09-09T12:54:18;2.90;;;1.17;;
73524;SDS011;61776;56.194;44.160;2022-09-09T12:56:46;2.92;;;0.80;;
73524;SDS011;61776;56.194;44.160;2022-09-09T12:59:27;2.00;;;0.40;;
73524;SDS011;61776;56.194;44.160;2022-09-09T13:02:01;2.53;;;0.70;;
73524;SDS011;61776;56.194;44.160;2022-09-09T13:04:27;2.60;;;0.32;;
73524;SDS011;61776;56.194;44.160;2022-09-09T13:06:53;1.73;;;0.40;;
73524;SDS011;61776;56.194;44.160;2022-09-09T13:09:19;2.72;;;0.60;;
73524;SDS011;61776;56.194;44.160;2022-09-09T13:11:47;3.22;;;0.60;;
73524;SDS011;61776;56.194;44.160;2022-09-09T13:14:26;3.10;;;0.80;;
73524;SDS011;61776;56.194;44.160;2022-09-09T13:16:56;2.47;;;0.70;;
73524;SDS011;61776;56.194;44.160;2022-09-09T13:19:24;2.40;;;0.60;;
73524;SDS011;61776;56.194;44.160;2022-09-09T13:21:54;2.30;;;0.82;;
73524;SDS011;61776;56.194;44.160;2022-09-09T13:24:25;3.00;;;0.98;;
73524;SDS011;61776;56.194;44.160;2022-09-09T13:26:56;3.55;;;1.10;;
73524;SDS011;61776;56.194;44.160;2022-09-09T13:29:23;3.10;;;0.70;;
73524;SDS011;61776;56.194;44.160;2022-09-09T13:31:50;4.63;;;0.93;;
73524;SDS011;61776;56.194;44.160;2022-09-09T13:34:31;2.60;;;0.80;;
73524;SDS011;61776;56.194;44.160;2022-09-09T13:37:00;2.28;;;0.60;;
73524;SDS011;61776;56.194;44.160;2022-09-09T13:39:32;2.47;;;0.40;;
73524;SDS011;61776;56.194;44.160;2022-09-09T13:42:00;2.30;;;0.63;;
73524;SDS011;61776;56.194;44.160;2022-09-09T13:44:29;2.70;;;0.80;;
73524;SDS011;61776;56.194;44.160;2022-09-09T13:49:32;2.03;;;0.57;;
73524;SDS011;61776;56.194;44.160;2022-09-09T13:52:12;2.50;;;0.95;;
73524;SDS011;61776;56.194;44.160;2022-09-09T13:54:39;3.73;;;0.67;;
73524;SDS011;61776;56.194;44.160;2022-09-09T13:57:13;1.52;;;0.45;;
73524;SDS011;61776;56.194;44.160;2022-09-09T13:59:42;1.83;;;0.40;;
73524;SDS011;61776;56.194;44.160;2022-09-09T14:02:08;1.07;;;0.20;;
73524;SDS011;61776;56.194;44.160;2022-09-09T14:04:34;2.20;;;0.33;;
73524;SDS011;61776;56.194;44.160;2022-09-09T14:07:00;2.28;;;0.30;;
73524;SDS011;61776;56.194;44.160;2022-09-09T14:09:27;2.15;;;0.40;;
73524;SDS011;61776;56.194;44.160;2022-09-09T14:11:52;1.70;;;0.20;;
73524;SDS011;61776;56.194;44.160;2022-09-09T14:14:20;3.80;;;0.37;;
73524;SDS011;61776;56.194;44.160;2022-09-09T14:16:46;1.60;;;0.22;;
73524;SDS011;61776;56.194;44.160;2022-09-09T14:19:12;2.15;;;0.40;;
73524;SDS011;61776;56.194;44.160;2022-09-09T14:21:38;3.00;;;0.88;;
73524;SDS011;61776;56.194;44.160;2022-09-09T14:24:04;2.40;;;0.43;;
73524;SDS011;61776;56.194;44.160;2022-09-09T14:26:31;2.30;;;0.40;;
73524;SDS011;61776;56.194;44.160;2022-09-09T14:28:57;1.92;;;0.30;;
73524;SDS011;61776;56.194;44.160;2022-09-09T14:31:23;3.65;;;0.70;;
73524;SDS011;61776;56.194;44.160;2022-09-09T14:33:50;4.03;;;0.70;;
73524;SDS011;61776;56.194;44.160;2022-09-09T14:36:16;5.00;;;0.80;;
73524;SDS011;61776;56.194;44.160;2022-09-09T14:38:42;2.45;;;0.70;;
73524;SDS011;61776;56.194;44.160;2022-09-09T14:41:09;3.28;;;1.02;;
73524;SDS011;61776;56.194;44.160;2022-09-09T14:43:39;4.57;;;1.00;;
73524;SDS011;61776;56.194;44.160;2022-09-09T14:46:06;2.80;;;0.57;;
73524;SDS011;61776;56.194;44.160;2022-09-09T14:48:36;2.53;;;0.60;;
73524;SDS011;61776;56.194;44.160;2022-09-09T14:51:05;4.05;;;1.00;;
73524;SDS011;61776;56.194;44.160;2022-09-09T14:53:32;3.30;;;1.13;;
73524;SDS011;61776;56.194;44.160;2022-09-09T14:56:03;4.70;;;1.30;;
73524;SDS011;61776;56.194;44.160;2022-09-09T14:58:38;5.60;;;1.05;;
73524;SDS011;61776;56.194;44.160;2022-09-09T15:01:05;3.00;;;0.98;;
73524;SDS011;61776;56.194;44.160;2022-09-09T15:03:33;4.55;;;0.68;;
73524;SDS011;61776;56.194;44.160;2022-09-09T15:06:04;4.18;;;1.00;;
73524;SDS011;61776;56.194;44.160;2022-09-09T15:08:37;9.10;;;1.83;;
73524;SDS011;61776;56.194;44.160;2022-09-09T15:11:05;7.63;;;1.80;;
73524;SDS011;61776;56.194;44.160;2022-09-09T15:13:35;6.43;;;2.13;;
73524;SDS011;61776;56.194;44.160;2022-09-09T15:16:12;8.48;;;2.38;;
73524;SDS011;61776;56.194;44.160;2022-09-09T15:18:41;9.15;;;3.00;;
73524;SDS011;61776;56.194;44.160;2022-09-09T15:21:10;9.90;;;2.63;;
73524;SDS011;61776;56.194;44.160;2022-09-09T15:23:40;7.20;;;2.20;;
73524;SDS011;61776;56.194;44.160;2022-09-09T15:26:06;8.45;;;2.70;;
73524;SDS011;61776;56.194;44.160;2022-09-09T15:28:34;7.40;;;2.35;;
73524;SDS011;61776;56.194;44.160;2022-09-09T15:31:06;7.90;;;2.10;;
73524;SDS011;61776;56.194;44.160;2022-09-09T15:33:35;7.03;;;2.10;;
73524;SDS011;61776;56.194;44.160;2022-09-09T15:36:20;8.18;;;1.92;;
73524;SDS011;61776;56.194;44.160;2022-09-09T15:38:50;7.60;;;2.30;;
73524;SDS011;61776;56.194;44.160;2022-09-09T15:41:17;9.07;;;2.47;;
73524;SDS011;61776;56.194;44.160;2022-09-09T15:43:48;7.15;;;2.20;;
73524;SDS011;61776;56.194;44.160;2022-09-09T15:48:41;7.40;;;2.50;;
73524;SDS011;61776;56.194;44.160;2022-09-09T15:51:09;7.25;;;2.55;;
73524;SDS011;61776;56.194;44.160;2022-09-09T15:53:38;8.87;;;2.80;;
73524;SDS011;61776;56.194;44.160;2022-09-09T15:56:05;11.73;;;3.65;;
73524;SDS011;61776;56.194;44.160;2022-09-09T15:58:34;14.65;;;4.90;;
73524;SDS011;61776;56.194;44.160;2022-09-09T16:01:05;15.02;;;6.15;;
73524;SDS011;61776;56.194;44.160;2022-09-09T16:03:39;13.95;;;6.15;;
73524;SDS011;61776;56.194;44.160;2022-09-09T16:06:13;14.27;;;6.00;;
73524;SDS011;61776;56.194;44.160;2022-09-09T16:08:41;15.63;;;6.50;;
73524;SDS011;61776;56.194;44.160;2022-09-09T16:11:09;14.25;;;6.10;;
73524;SDS011;61776;56.194;44.160;2022-09-09T16:13:38;15.80;;;5.40;;
73524;SDS011;61776;56.194;44.160;2022-09-09T16:16:05;11.77;;;4.90;;
73524;SDS011;61776;56.194;44.160;2022-09-09T16:18:35;11.40;;;4.33;;
73524;SDS011;61776;56.194;44.160;2022-09-09T16:21:27;14.63;;;4.00;;
73524;SDS011;61776;56.194;44.160;2022-09-09T16:23:55;12.13;;;4.03;;
73524;SDS011;61776;56.194;44.160;2022-09-09T16:26:23;11.13;;;4.13;;
73524;SDS011;61776;56.194;44.160;2022-09-09T16:28:49;14.33;;;4.23;;
73524;SDS011;61776;56.194;44.160;2022-09-09T16:31:19;16.25;;;4.47;;
73524;SDS011;61776;56.194;44.160;2022-09-09T16:33:47;12.65;;;5.15;;
73524;SDS011;61776;56.194;44.160;2022-09-09T16:36:14;16.48;;;6.93;;
73524;SDS011;61776;56.194;44.160;2022-09-09T16:38:42;16.08;;;7.50;;
73524;SDS011;61776;56.194;44.160;2022-09-09T16:41:09;18.10;;;7.07;;
73524;SDS011;61776;56.194;44.160;2022-09-09T16:43:36;20.35;;;7.40;;
73524;SDS011;61776;56.194;44.160;2022-09-09T16:46:03;17.85;;;8.13;;
73524;SDS011;61776;56.194;44.160;2022-09-09T16:48:40;24.63;;;10.98;;
73524;SDS011;61776;56.194;44.160;2022-09-09T16:51:11;23.95;;;10.00;;
73524;SDS011;61776;56.194;44.160;2022-09-09T16:53:42;27.97;;;9.77;;
73524;SDS011;61776;56.194;44.160;2022-09-09T16:56:12;20.25;;;7.90;;
73524;SDS011;61776;56.194;44.160;2022-09-09T16:58:40;26.98;;;9.48;;
73524;SDS011;61776;56.194;44.160;2022-09-09T17:01:08;25.33;;;11.48;;
73524;SDS011;61776;56.194;44.160;2022-09-09T17:03:39;30.83;;;10.85;;
73524;SDS011;61776;56.194;44.160;2022-09-09T17:06:09;20.90;;;8.77;;
73524;SDS011;61776;56.194;44.160;2022-09-09T17:08:39;31.17;;;11.07;;
73524;SDS011;61776;56.194;44.160;2022-09-09T17:11:13;24.13;;;7.93;;
73524;SDS011;61776;56.194;44.160;2022-09-09T17:13:43;18.58;;;6.78;;
73524;SDS011;61776;56.194;44.160;2022-09-09T17:16:10;14.95;;;5.57;;
73524;SDS011;61776;56.194;44.160;2022-09-09T17:18:37;10.53;;;4.40;;
73524;SDS011;61776;56.194;44.160;2022-09-09T17:21:04;14.27;;;3.80;;
73524;SDS011;61776;56.194;44.160;2022-09-09T17:23:32;11.07;;;3.25;;
73524;SDS011;61776;56.194;44.160;2022-09-09T17:25:59;11.30;;;3.05;;
73524;SDS011;61776;56.194;44.160;2022-09-09T17:28:26;10.07;;;3.05;;
73524;SDS011;61776;56.194;44.160;2022-09-09T17:30:57;9.27;;;2.90;;
73524;SDS011;61776;56.194;44.160;2022-09-09T17:33:27;11.02;;;3.05;;